sensor_id;sensor_type;location;lat;lon;timestamp;temperature;humidity
64638;HTU21D;51049;45.046;38.950;2022-12-18T00:01:47;9.17;76.28
64638;HTU21D;51049;45.046;38.950;2022-12-18T00:04:23;9.08;76.36
64638;HTU21D;51049;45.046;38.950;2022-12-18T00:06:58;8.98;76.45
64638;HTU21D;51049;45.046;38.950;2022-12-18T00:09:28;8.90;76.51
64638;HTU21D;51049;45.046;38.950;2022-12-18T00:14:57;8.77;76.59
64638;HTU21D;51049;45.046;38.950;2022-12-18T00:17:34;8.71;76.63
64638;HTU21D;51049;45.046;38.950;2022-12-18T00:20:10;8.64;76.69
64638;HTU21D;51049;45.046;38.950;2022-12-18T00:22:42;8.58;76.76
64638;HTU21D;51049;45.046;38.950;2022-12-18T00:25:29;8.51;76.78
64638;HTU21D;51049;45.046;38.950;2022-12-18T00:28:03;8.47;76.79
64638;HTU21D;51049;45.046;38.950;2022-12-18T00:30:32;8.41;76.76
64638;HTU21D;51049;45.046;38.950;2022-12-18T00:33:19;8.34;76.79
64638;HTU21D;51049;45.046;38.950;2022-12-18T00:36:13;8.28;76.84
64638;HTU21D;51049;45.046;38.950;2022-12-18T00:38:51;8.24;76.86
64638;HTU21D;51049;45.046;38.950;2022-12-18T00:41:22;8.20;76.89
64638;HTU21D;51049;45.046;38.950;2022-12-18T00:44:15;8.14;76.91
64638;HTU21D;51049;45.046;38.950;2022-12-18T00:46:45;8.11;76.91
64638;HTU21D;51049;45.046;38.950;2022-12-18T00:49:21;8.04;76.91
64638;HTU21D;51049;45.046;38.950;2022-12-18T00:51:50;7.99;76.93
64638;HTU21D;51049;45.046;38.950;2022-12-18T00:54:31;7.94;76.97
64638;HTU21D;51049;45.046;38.950;2022-12-18T00:57:10;7.90;76.98
64638;HTU21D;51049;45.046;38.950;2022-12-18T00:59:49;7.86;77.01
64638;HTU21D;51049;45.046;38.950;2022-12-18T01:02:21;7.82;77.04
64638;HTU21D;51049;45.046;38.950;2022-12-18T01:05:02;7.79;77.08
64638;HTU21D;51049;45.046;38.950;2022-12-18T01:07:34;7.76;77.13
64638;HTU21D;51049;45.046;38.950;2022-12-18T01:10:13;7.74;77.15
64638;HTU21D;51049;45.046;38.950;2022-12-18T01:12:40;7.75;77.18
64638;HTU21D;51049;45.046;38.950;2022-12-18T01:15:25;7.77;77.13
64638;HTU21D;51049;45.046;38.950;2022-12-18T01:18:09;7.82;77.09
64638;HTU21D;51049;45.046;38.950;2022-12-18T01:20:41;7.82;77.01
64638;HTU21D;51049;45.046;38.950;2022-12-18T01:23:17;7.86;76.96
64638;HTU21D;51049;45.046;38.950;2022-12-18T01:26:18;7.88;76.95
64638;HTU21D;51049;45.046;38.950;2022-12-18T01:28:55;7.98;76.91
64638;HTU21D;51049;45.046;38.950;2022-12-18T01:31:45;8.04;76.82
64638;HTU21D;51049;45.046;38.950;2022-12-18T01:34:27;8.09;76.73
64638;HTU21D;51049;45.046;38.950;2022-12-18T01:37:07;8.17;76.67
64638;HTU21D;51049;45.046;38.950;2022-12-18T01:39:38;8.23;76.63
64638;HTU21D;51049;45.046;38.950;2022-12-18T01:42:25;8.28;76.51
64638;HTU21D;51049;45.046;38.950;2022-12-18T01:47:55;8.35;76.47
64638;HTU21D;51049;45.046;38.950;2022-12-18T01:50:47;8.43;76.49
64638;HTU21D;51049;45.046;38.950;2022-12-18T01:53:23;8.53;76.47
64638;HTU21D;51049;45.046;38.950;2022-12-18T01:56:01;8.66;76.34
64638;HTU21D;51049;45.046;38.950;2022-12-18T01:59:12;8.73;76.23
64638;HTU21D;51049;45.046;38.950;2022-12-18T02:01:56;8.77;76.15
64638;HTU21D;51049;45.046;38.950;2022-12-18T02:04:32;8.77;76.11
64638;HTU21D;51049;45.046;38.950;2022-12-18T02:10:54;8.79;76.25
64638;HTU21D;51049;45.046;38.950;2022-12-18T02:14:09;8.83;76.26
64638;HTU21D;51049;45.046;38.950;2022-12-18T02:29:24;8.59;76.25
64638;HTU21D;51049;45.046;38.950;2022-12-18T02:32:15;8.50;76.37
64638;HTU21D;51049;45.046;38.950;2022-12-18T02:34:59;8.43;76.45
64638;HTU21D;51049;45.046;38.950;2022-12-18T02:37:35;8.35;76.51
64638;HTU21D;51049;45.046;38.950;2022-12-18T02:40:25;8.27;76.62
64638;HTU21D;51049;45.046;38.950;2022-12-18T02:43:20;8.20;76.69
64638;HTU21D;51049;45.046;38.950;2022-12-18T02:46:00;8.14;76.75
64638;HTU21D;51049;45.046;38.950;2022-12-18T02:48:41;8.11;76.83
64638;HTU21D;51049;45.046;38.950;2022-12-18T03:00:31;8.28;76.80
64638;HTU21D;51049;45.046;38.950;2022-12-18T03:03:28;8.38;76.76
64638;HTU21D;51049;45.046;38.950;2022-12-18T03:06:29;8.47;76.69
64638;HTU21D;51049;45.046;38.950;2022-12-18T03:09:06;8.56;76.70
64638;HTU21D;51049;45.046;38.950;2022-12-18T03:11:58;8.65;76.61
64638;HTU21D;51049;45.046;38.950;2022-12-18T03:18:21;8.83;76.47
64638;HTU21D;51049;45.046;38.950;2022-12-18T03:21:41;8.91;76.44
64638;HTU21D;51049;45.046;38.950;2022-12-18T03:24:26;8.98;76.41
64638;HTU21D;51049;45.046;38.950;2022-12-18T03:27:03;9.05;76.36
64638;HTU21D;51049;45.046;38.950;2022-12-18T03:29:59;9.10;76.33
64638;HTU21D;51049;45.046;38.950;2022-12-18T03:35:53;9.15;76.28
64638;HTU21D;51049;45.046;38.950;2022-12-18T03:38:25;9.17;76.30
64638;HTU21D;51049;45.046;38.950;2022-12-18T03:49:06;9.41;76.37
64638;HTU21D;51049;45.046;38.950;2022-12-18T03:52:06;9.51;76.31
64638;HTU21D;51049;45.046;38.950;2022-12-18T03:54:53;9.61;76.23
64638;HTU21D;51049;45.046;38.950;2022-12-18T03:57:56;9.70;76.21
64638;HTU21D;51049;45.046;38.950;2022-12-18T04:01:00;9.89;76.18
64638;HTU21D;51049;45.046;38.950;2022-12-18T04:03:39;10.03;76.02
64638;HTU21D;51049;45.046;38.950;2022-12-18T04:06:21;10.14;75.95
64638;HTU21D;51049;45.046;38.950;2022-12-18T04:08:53;10.22;75.91
64638;HTU21D;51049;45.046;38.950;2022-12-18T04:11:36;10.25;75.83
64638;HTU21D;51049;45.046;38.950;2022-12-18T04:14:22;10.33;75.86
64638;HTU21D;51049;45.046;38.950;2022-12-18T04:19:48;10.56;75.73
64638;HTU21D;51049;45.046;38.950;2022-12-18T04:22:34;10.60;75.68
64638;HTU21D;51049;45.046;38.950;2022-12-18T04:25:12;10.65;75.75
64638;HTU21D;51049;45.046;38.950;2022-12-18T04:28:08;10.72;75.75
64638;HTU21D;51049;45.046;38.950;2022-12-18T04:30:52;10.80;75.79
64638;HTU21D;51049;45.046;38.950;2022-12-18T04:33:31;10.92;75.76
64638;HTU21D;51049;45.046;38.950;2022-12-18T04:36:01;11.04;75.67
64638;HTU21D;51049;45.046;38.950;2022-12-18T04:38:32;11.17;75.60
64638;HTU21D;51049;45.046;38.950;2022-12-18T04:41:23;11.32;75.50
64638;HTU21D;51049;45.046;38.950;2022-12-18T04:44:03;11.44;75.44
64638;HTU21D;51049;45.046;38.950;2022-12-18T04:46:33;11.52;75.30
64638;HTU21D;51049;45.046;38.950;2022-12-18T04:49:07;11.51;75.25
64638;HTU21D;51049;45.046;38.950;2022-12-18T04:54:55;11.44;75.34
64638;HTU21D;51049;45.046;38.950;2022-12-18T04:57:31;11.36;75.44
64638;HTU21D;51049;45.046;38.950;2022-12-18T05:00:09;11.30;75.53
64638;HTU21D;51049;45.046;38.950;2022-12-18T05:02:51;11.28;75.69
64638;HTU21D;51049;45.046;38.950;2022-12-18T05:11:55;11.44;75.52
64638;HTU21D;51049;45.046;38.950;2022-12-18T05:14:35;11.46;75.44
64638;HTU21D;51049;45.046;38.950;2022-12-18T05:17:16;11.47;75.46
64638;HTU21D;51049;45.046;38.950;2022-12-18T05:19:50;11.56;75.52
64638;HTU21D;51049;45.046;38.950;2022-12-18T05:22:31;11.67;75.50
64638;HTU21D;51049;45.046;38.950;2022-12-18T05:25:04;11.81;75.41
64638;HTU21D;51049;45.046;38.950;2022-12-18T05:27:35;11.94;75.31
64638;HTU21D;51049;45.046;38.950;2022-12-18T05:33:19;12.20;75.08
64638;HTU21D;51049;45.046;38.950;2022-12-18T05:36:10;12.29;75.04
64638;HTU21D;51049;45.046;38.950;2022-12-18T05:39:06;12.35;74.97
64638;HTU21D;51049;45.046;38.950;2022-12-18T05:41:42;12.40;74.97
64638;HTU21D;51049;45.046;38.950;2022-12-18T05:44:16;12.44;74.96
64638;HTU21D;51049;45.046;38.950;2022-12-18T05:46:45;12.46;74.97
64638;HTU21D;51049;45.046;38.950;2022-12-18T05:49:11;12.50;74.98
64638;HTU21D;51049;45.046;38.950;2022-12-18T05:51:37;12.52;74.96
64638;HTU21D;51049;45.046;38.950;2022-12-18T05:54:03;12.57;74.96
64638;HTU21D;51049;45.046;38.950;2022-12-18T05:56:48;12.61;74.96
64638;HTU21D;51049;45.046;38.950;2022-12-18T06:03:20;12.70;74.91
64638;HTU21D;51049;45.046;38.950;2022-12-18T06:06:12;12.71;74.89
64638;HTU21D;51049;45.046;38.950;2022-12-18T06:09:10;12.77;74.86
64638;HTU21D;51049;45.046;38.950;2022-12-18T06:11:40;12.81;74.84
64638;HTU21D;51049;45.046;38.950;2022-12-18T06:14:55;12.89;74.85
64638;HTU21D;51049;45.046;38.950;2022-12-18T06:17:37;12.95;74.79
64638;HTU21D;51049;45.046;38.950;2022-12-18T06:20:07;13.03;74.76
64638;HTU21D;51049;45.046;38.950;2022-12-18T06:22:46;13.09;74.74
64638;HTU21D;51049;45.046;38.950;2022-12-18T06:25:18;13.18;74.71
64638;HTU21D;51049;45.046;38.950;2022-12-18T06:27:49;13.29;74.67
64638;HTU21D;51049;45.046;38.950;2022-12-18T06:33:43;13.51;74.47
64638;HTU21D;51049;45.046;38.950;2022-12-18T06:36:32;13.61;74.44
64638;HTU21D;51049;45.046;38.950;2022-12-18T06:39:33;13.69;74.40
64638;HTU21D;51049;45.046;38.950;2022-12-18T06:42:25;13.76;74.35
64638;HTU21D;51049;45.046;38.950;2022-12-18T06:45:17;13.80;74.31
64638;HTU21D;51049;45.046;38.950;2022-12-18T06:48:14;13.83;74.31
64638;HTU21D;51049;45.046;38.950;2022-12-18T06:50:58;13.84;74.33
64638;HTU21D;51049;45.046;38.950;2022-12-18T06:53:46;13.85;74.38
64638;HTU21D;51049;45.046;38.950;2022-12-18T06:56:24;13.90;74.45
64638;HTU21D;51049;45.046;38.950;2022-12-18T06:59:13;13.93;74.38
64638;HTU21D;51049;45.046;38.950;2022-12-18T07:01:48;14.00;74.31
64638;HTU21D;51049;45.046;38.950;2022-12-18T07:04:24;14.06;74.26
64638;HTU21D;51049;45.046;38.950;2022-12-18T07:07:28;14.11;74.22
64638;HTU21D;51049;45.046;38.950;2022-12-18T07:10:16;14.17;74.15
64638;HTU21D;51049;45.046;38.950;2022-12-18T07:12:54;14.21;74.15
64638;HTU21D;51049;45.046;38.950;2022-12-18T07:19:05;14.34;74.10
64638;HTU21D;51049;45.046;38.950;2022-12-18T07:21:41;14.41;74.09
64638;HTU21D;51049;45.046;38.950;2022-12-18T07:24:41;14.54;73.98
64638;HTU21D;51049;45.046;38.950;2022-12-18T07:27:25;14.60;73.90
64638;HTU21D;51049;45.046;38.950;2022-12-18T07:29:51;14.68;73.85
64638;HTU21D;51049;45.046;38.950;2022-12-18T07:32:19;14.73;73.83
64638;HTU21D;51049;45.046;38.950;2022-12-18T07:35:29;14.81;73.83
64638;HTU21D;51049;45.046;38.950;2022-12-18T07:38:00;14.92;73.83
64638;HTU21D;51049;45.046;38.950;2022-12-18T07:44:42;15.11;73.52
64638;HTU21D;51049;45.046;38.950;2022-12-18T07:47:26;15.21;73.46
64638;HTU21D;51049;45.046;38.950;2022-12-18T07:50:38;15.33;73.42
64638;HTU21D;51049;45.046;38.950;2022-12-18T07:53:16;15.42;73.32
64638;HTU21D;51049;45.046;38.950;2022-12-18T07:55:48;15.54;73.28
64638;HTU21D;51049;45.046;38.950;2022-12-18T07:58:18;15.68;73.22
64638;HTU21D;51049;45.046;38.950;2022-12-18T08:01:10;15.84;73.12
64638;HTU21D;51049;45.046;38.950;2022-12-18T08:04:07;15.98;73.04
64638;HTU21D;51049;45.046;38.950;2022-12-18T08:07:00;16.15;72.93
64638;HTU21D;51049;45.046;38.950;2022-12-18T08:09:48;16.27;72.81
64638;HTU21D;51049;45.046;38.950;2022-12-18T08:16:28;16.59;72.63
64638;HTU21D;51049;45.046;38.950;2022-12-18T08:19:03;16.72;72.56
64638;HTU21D;51049;45.046;38.950;2022-12-18T08:22:11;16.91;72.48
64638;HTU21D;51049;45.046;38.950;2022-12-18T08:25:00;17.08;72.35
64638;HTU21D;51049;45.046;38.950;2022-12-18T08:34:51;17.68;72.00
64638;HTU21D;51049;45.046;38.950;2022-12-18T08:44:35;17.99;71.87
64638;HTU21D;51049;45.046;38.950;2022-12-18T08:48:02;18.07;71.84
64638;HTU21D;51049;45.046;38.950;2022-12-18T08:51:42;18.18;71.82
64638;HTU21D;51049;45.046;38.950;2022-12-18T08:55:33;18.30;71.77
64638;HTU21D;51049;45.046;38.950;2022-12-18T09:06:37;18.68;71.46
64638;HTU21D;51049;45.046;38.950;2022-12-18T09:09:42;18.77;71.40
64638;HTU21D;51049;45.046;38.950;2022-12-18T09:13:27;18.92;71.39
64638;HTU21D;51049;45.046;38.950;2022-12-18T09:24:08;19.15;71.06
64638;HTU21D;51049;45.046;38.950;2022-12-18T09:38:48;18.92;71.41
64638;HTU21D;51049;45.046;38.950;2022-12-18T09:45:56;18.85;71.31
64638;HTU21D;51049;45.046;38.950;2022-12-18T09:53:17;18.76;71.35
64638;HTU21D;51049;45.046;38.950;2022-12-18T10:04:04;18.92;71.58
64638;HTU21D;51049;45.046;38.950;2022-12-18T13:44:58;11.13;74.41
64638;HTU21D;51049;45.046;38.950;2022-12-18T13:47:32;11.02;74.51
64638;HTU21D;51049;45.046;38.950;2022-12-18T13:49:59;10.88;74.58
64638;HTU21D;51049;45.046;38.950;2022-12-18T13:56:03;10.62;74.83
64638;HTU21D;51049;45.046;38.950;2022-12-18T13:58:34;10.49;74.86
64638;HTU21D;51049;45.046;38.950;2022-12-18T14:01:59;10.33;74.99
64638;HTU21D;51049;45.046;38.950;2022-12-18T14:39:41;8.92;75.70
64638;HTU21D;51049;45.046;38.950;2022-12-18T14:55:27;8.56;75.77
64638;HTU21D;51049;45.046;38.950;2022-12-18T15:07:03;8.22;75.90
64638;HTU21D;51049;45.046;38.950;2022-12-18T16:20:11;6.78;76.67
64638;HTU21D;51049;45.046;38.950;2022-12-18T16:39:13;6.30;76.85
64638;HTU21D;51049;45.046;38.950;2022-12-18T17:31:22;5.89;76.98
64638;HTU21D;51049;45.046;38.950;2022-12-18T17:44:10;5.72;77.02
64638;HTU21D;51049;45.046;38.950;2022-12-18T18:59:05;4.88;77.51
64638;HTU21D;51049;45.046;38.950;2022-12-18T19:05:44;4.82;77.50
64638;HTU21D;51049;45.046;38.950;2022-12-18T19:09:12;4.80;77.56
64638;HTU21D;51049;45.046;38.950;2022-12-18T19:12:40;4.80;77.59
64638;HTU21D;51049;45.046;38.950;2022-12-18T19:15:54;4.80;77.59
64638;HTU21D;51049;45.046;38.950;2022-12-18T19:19:04;4.82;77.60
64638;HTU21D;51049;45.046;38.950;2022-12-18T19:22:01;4.83;77.57
64638;HTU21D;51049;45.046;38.950;2022-12-18T19:25:08;4.84;77.60
64638;HTU21D;51049;45.046;38.950;2022-12-18T19:28:01;4.84;77.55
64638;HTU21D;51049;45.046;38.950;2022-12-18T19:34:54;4.84;77.55
64638;HTU21D;51049;45.046;38.950;2022-12-18T19:37:39;4.84;77.56
64638;HTU21D;51049;45.046;38.950;2022-12-18T19:44:35;4.81;77.61
64638;HTU21D;51049;45.046;38.950;2022-12-18T19:48:07;4.79;77.62
64638;HTU21D;51049;45.046;38.950;2022-12-18T19:54:02;4.78;77.65
64638;HTU21D;51049;45.046;38.950;2022-12-18T20:00:42;4.78;77.69
64638;HTU21D;51049;45.046;38.950;2022-12-18T20:03:26;4.80;77.69
64638;HTU21D;51049;45.046;38.950;2022-12-18T20:13:50;4.78;77.66
64638;HTU21D;51049;45.046;38.950;2022-12-18T20:17:04;4.74;77.62
64638;HTU21D;51049;45.046;38.950;2022-12-18T20:19:51;4.71;77.72
64638;HTU21D;51049;45.046;38.950;2022-12-18T20:22:50;4.72;77.79
64638;HTU21D;51049;45.046;38.950;2022-12-18T20:26:00;4.71;77.79
64638;HTU21D;51049;45.046;38.950;2022-12-18T20:29:21;4.71;77.76
64638;HTU21D;51049;45.046;38.950;2022-12-18T20:32:34;4.68;77.79
64638;HTU21D;51049;45.046;38.950;2022-12-18T20:39:25;4.64;77.81
64638;HTU21D;51049;45.046;38.950;2022-12-18T20:42:51;4.64;77.79
64638;HTU21D;51049;45.046;38.950;2022-12-18T20:45:40;4.64;77.80
64638;HTU21D;51049;45.046;38.950;2022-12-18T20:48:42;4.64;77.84
64638;HTU21D;51049;45.046;38.950;2022-12-18T20:51:37;4.65;77.82
64638;HTU21D;51049;45.046;38.950;2022-12-18T20:58:16;4.63;77.79
64638;HTU21D;51049;45.046;38.950;2022-12-18T21:04:51;4.60;77.82
64638;HTU21D;51049;45.046;38.950;2022-12-18T21:07:40;4.58;77.77
64638;HTU21D;51049;45.046;38.950;2022-12-18T21:10:46;4.54;77.76
64638;HTU21D;51049;45.046;38.950;2022-12-18T21:13:54;4.51;77.79
64638;HTU21D;51049;45.046;38.950;2022-12-18T21:16:26;4.49;77.82
64638;HTU21D;51049;45.046;38.950;2022-12-18T21:19:17;4.47;77.82
64638;HTU21D;51049;45.046;38.950;2022-12-18T21:21:57;4.44;77.82
64638;HTU21D;51049;45.046;38.950;2022-12-18T21:24:36;4.43;77.84
64638;HTU21D;51049;45.046;38.950;2022-12-18T21:27:20;4.41;77.85
64638;HTU21D;51049;45.046;38.950;2022-12-18T21:29:54;4.38;77.82
64638;HTU21D;51049;45.046;38.950;2022-12-18T21:32:26;4.35;77.83
64638;HTU21D;51049;45.046;38.950;2022-12-18T21:35:13;4.34;77.89
64638;HTU21D;51049;45.046;38.950;2022-12-18T21:37:46;4.33;77.88
64638;HTU21D;51049;45.046;38.950;2022-12-18T21:40:30;4.32;77.83
64638;HTU21D;51049;45.046;38.950;2022-12-18T21:43:01;4.29;77.83
64638;HTU21D;51049;45.046;38.950;2022-12-18T21:45:51;4.24;77.82
64638;HTU21D;51049;45.046;38.950;2022-12-18T21:49:11;4.20;77.83
64638;HTU21D;51049;45.046;38.950;2022-12-18T21:51:53;4.17;77.82
64638;HTU21D;51049;45.046;38.950;2022-12-18T21:54:26;4.14;77.85
64638;HTU21D;51049;45.046;38.950;2022-12-18T21:57:05;4.10;77.82
64638;HTU21D;51049;45.046;38.950;2022-12-18T21:59:47;4.07;77.82
64638;HTU21D;51049;45.046;38.950;2022-12-18T22:02:53;4.03;77.80
64638;HTU21D;51049;45.046;38.950;2022-12-18T22:05:28;4.00;77.82
64638;HTU21D;51049;45.046;38.950;2022-12-18T22:07:58;3.97;77.88
64638;HTU21D;51049;45.046;38.950;2022-12-18T22:10:42;3.95;77.90
64638;HTU21D;51049;45.046;38.950;2022-12-18T22:13:12;3.93;77.87
64638;HTU21D;51049;45.046;38.950;2022-12-18T22:15:51;3.90;77.86
64638;HTU21D;51049;45.046;38.950;2022-12-18T22:18:21;3.87;77.84
64638;HTU21D;51049;45.046;38.950;2022-12-18T22:21:39;3.80;77.90
64638;HTU21D;51049;45.046;38.950;2022-12-18T22:24:29;3.75;77.87
64638;HTU21D;51049;45.046;38.950;2022-12-18T22:27:00;3.70;77.90
64638;HTU21D;51049;45.046;38.950;2022-12-18T22:29:35;3.68;77.97
64638;HTU21D;51049;45.046;38.950;2022-12-18T22:32:29;3.63;77.93
64638;HTU21D;51049;45.046;38.950;2022-12-18T22:35:05;3.60;77.96
64638;HTU21D;51049;45.046;38.950;2022-12-18T22:37:40;3.59;77.98
64638;HTU21D;51049;45.046;38.950;2022-12-18T22:40:25;3.56;77.98
64638;HTU21D;51049;45.046;38.950;2022-12-18T22:43:00;3.56;78.05
64638;HTU21D;51049;45.046;38.950;2022-12-18T22:45:30;3.56;78.03
64638;HTU21D;51049;45.046;38.950;2022-12-18T22:48:05;3.56;77.99
64638;HTU21D;51049;45.046;38.950;2022-12-18T22:50:39;3.54;77.97
64638;HTU21D;51049;45.046;38.950;2022-12-18T22:53:23;3.54;77.95
64638;HTU21D;51049;45.046;38.950;2022-12-18T22:56:05;3.49;77.89
64638;HTU21D;51049;45.046;38.950;2022-12-18T22:58:46;3.48;77.92
64638;HTU21D;51049;45.046;38.950;2022-12-18T23:01:22;3.46;77.95
64638;HTU21D;51049;45.046;38.950;2022-12-18T23:03:49;3.46;77.98
64638;HTU21D;51049;45.046;38.950;2022-12-18T23:06:18;3.46;77.92
64638;HTU21D;51049;45.046;38.950;2022-12-18T23:08:50;3.45;77.88
64638;HTU21D;51049;45.046;38.950;2022-12-18T23:11:20;3.43;77.86
64638;HTU21D;51049;45.046;38.950;2022-12-18T23:13:53;3.42;77.88
64638;HTU21D;51049;45.046;38.950;2022-12-18T23:16:30;3.40;77.92
64638;HTU21D;51049;45.046;38.950;2022-12-18T23:19:11;3.40;77.91
64638;HTU21D;51049;45.046;38.950;2022-12-18T23:21:48;3.40;77.92
64638;HTU21D;51049;45.046;38.950;2022-12-18T23:24:19;3.39;77.93
64638;HTU21D;51049;45.046;38.950;2022-12-18T23:26:59;3.38;77.93
64638;HTU21D;51049;45.046;38.950;2022-12-18T23:29:37;3.40;77.92
64638;HTU21D;51049;45.046;38.950;2022-12-18T23:32:14;3.40;77.93
64638;HTU21D;51049;45.046;38.950;2022-12-18T23:34:43;3.40;77.90
64638;HTU21D;51049;45.046;38.950;2022-12-18T23:37:15;3.40;77.89
64638;HTU21D;51049;45.046;38.950;2022-12-18T23:39:56;3.39;77.86
64638;HTU21D;51049;45.046;38.950;2022-12-18T23:42:25;3.41;77.85
64638;HTU21D;51049;45.046;38.950;2022-12-18T23:44:58;3.39;77.84
64638;HTU21D;51049;45.046;38.950;2022-12-18T23:47:37;3.40;77.82
64638;HTU21D;51049;45.046;38.950;2022-12-18T23:50:18;3.40;77.80
64638;HTU21D;51049;45.046;38.950;2022-12-18T23:53:03;3.41;77.79
64638;HTU21D;51049;45.046;38.950;2022-12-18T23:55:47;3.40;77.76
64638;HTU21D;51049;45.046;38.950;2022-12-18T23:58:24;3.40;77.75
